Time;durP1;ratioP1;P1;durP2;ratioP2;P2;SDS_P1;SDS_P2;PMS_P1;PMS_P2;Temp;Humidity;BMP_temperature;BMP_pressure;BME280_temperature;BME280_humidity;BME280_pressure;Samples;Min_cycle;Max_cycle;Signal;HPM_P1;HPM_P2
2022/02/11 00:02:17;;;;;;;19.99;18.52;;;;;;;5.20;72.89;101208.16;456988;114;922525;-80
2022/02/11 00:04:51;;;;;;;20.68;18.90;;;;;;;5.19;72.86;101217.28;454776;114;922539;-80
2022/02/11 00:05:58;;;;;;;21.67;19.99;;;;;;;5.17;72.86;101216.61;452400;114;922668;-79
2022/02/11 00:07:02;;;;;;;20.61;18.99;;;;;;;5.16;72.91;101212.21;452973;114;922506;-80
2022/02/11 00:07:45;;;;;;;19.61;18.07;;;;;;;5.14;72.98;101211.52;452156;114;922973;-77
2022/02/11 00:08:48;;;;;;;20.25;18.75;;;;;;;5.13;72.89;101227.92;456082;114;922612;-80
2022/02/11 00:09:53;;;;;;;18.57;17.07;;;;;;;5.10;72.93;101215.56;456067;114;930424;-80
2022/02/11 00:10:56;;;;;;;20.14;18.47;;;;;;;5.07;72.96;101213.20;455607;114;922536;-78
2022/02/11 00:12:00;;;;;;;19.71;18.13;;;;;;;5.06;73.00;101221.47;455586;114;922863;-80
2022/02/11 00:13:04;;;;;;;19.84;18.36;;;;;;;5.04;73.05;101217.06;454938;114;923038;-79
2022/02/11 00:14:08;;;;;;;19.19;17.71;;;;;;;5.03;73.06;101219.92;454495;114;923247;-77
2022/02/11 00:16:30;;;;;;;20.14;18.64;;;;;;;5.02;73.12;101212.82;454633;114;922623;-79
2022/02/11 00:17:33;;;;;;;21.36;19.66;;;;;;;5.01;73.16;101211.16;453324;114;922577;-79
2022/02/11 00:18:37;;;;;;;20.66;19.08;;;;;;;5.01;73.19;101213.86;455881;114;922908;-80
2022/02/11 00:19:40;;;;;;;19.38;17.78;;;;;;;5.00;73.17;101213.01;455893;114;922546;-78
2022/02/11 00:20:49;;;;;;;19.70;17.84;;;;;;;5.00;73.17;101217.56;455168;114;922994;-79
2022/02/11 00:21:52;;;;;;;19.37;17.80;;;;;;;4.99;73.16;101207.76;454925;114;922650;-80
2022/02/11 00:22:55;;;;;;;17.62;16.31;;;;;;;4.96;73.17;101211.62;454400;114;923004;-81
2022/02/11 00:23:59;;;;;;;18.81;17.31;;;;;;;4.96;73.21;101210.80;455650;114;922569;-78
2022/02/11 00:25:02;;;;;;;19.72;17.95;;;;;;;4.93;73.24;101205.70;455919;114;922890;-76
2022/02/11 00:26:07;;;;;;;18.86;17.39;;;;;;;4.91;73.32;101210.41;454689;114;922721;-80
2022/02/11 00:31:10;;;;;;;19.03;17.43;;;;;;;4.84;73.44;101206.70;454343;114;922512;-80
2022/02/11 00:33:32;;;;;;;19.66;18.06;;;;;;;4.75;73.73;101202.24;454528;114;922717;-80
2022/02/11 00:34:47;;;;;;;17.58;16.22;;;;;;;4.75;73.84;101207.64;453716;114;922698;-79
2022/02/11 00:35:52;;;;;;;;;;;;;;;4.74;73.88;101205.98;458772;114;922276;-78
2022/02/11 00:37:03;;;;;;;17.75;16.26;;;;;;;4.75;73.88;101213.90;456853;114;922337;-80
2022/02/11 00:37:56;;;;;;;18.02;16.52;;;;;;;4.75;73.93;101204.95;452168;114;923012;-80
2022/02/11 00:39:23;;;;;;;18.54;17.14;;;;;;;4.75;74.00;101213.05;455662;114;922878;-78
2022/02/11 00:40:23;;;;;;;19.28;17.46;;;;;;;4.75;74.05;101208.49;453118;114;923181;-78
2022/02/11 00:53:44;;;;;;;17.27;15.77;;;;;;;4.87;73.92;101206.36;455916;114;922489;-80
2022/02/11 01:02:36;;;;;;;18.13;16.74;;;;;;;4.90;73.91;101201.49;456770;114;922624;-78
2022/02/11 01:03:53;;;;;;;16.80;15.52;;;;;;;4.91;73.87;101203.16;452718;114;922521;-81
2022/02/11 01:04:39;;;;;;;18.11;16.67;;;;;;;4.92;73.86;101204.86;454711;114;922583;-79
2022/02/11 01:05:42;;;;;;;17.83;16.52;;;;;;;4.94;73.83;101199.30;454656;114;922665;-80
2022/02/11 01:06:45;;;;;;;19.31;17.56;;;;;;;4.95;73.80;101203.70;454277;114;923237;-80
2022/02/11 01:07:49;;;;;;;17.82;16.44;;;;;;;4.97;73.78;101202.51;455485;114;922701;-79
2022/02/11 01:08:53;;;;;;;18.59;17.21;;;;;;;4.98;73.72;101204.20;454673;114;922729;-80
2022/02/11 01:09:56;;;;;;;18.71;17.29;;;;;;;5.01;73.70;101205.75;458548;114;922263;-81
2022/02/11 01:11:00;;;;;;;17.71;16.32;;;;;;;5.03;73.67;101203.71;458077;114;922194;-77
2022/02/11 01:12:05;;;;;;;19.14;17.62;;;;;;;5.05;73.60;101204.41;456655;114;922098;-77
2022/02/11 01:13:08;;;;;;;17.62;16.27;;;;;;;5.09;73.56;101200.36;456753;114;922300;-78
2022/02/11 01:14:11;;;;;;;18.82;17.26;;;;;;;5.11;73.56;101202.91;455528;114;922595;-77
2022/02/11 01:15:15;;;;;;;18.01;16.66;;;;;;;5.12;73.45;101210.86;456871;113;922510;-79
2022/02/11 01:16:24;;;;;;;18.47;17.04;;;;;;;5.13;73.35;101209.00;456711;114;922194;-76
2022/02/11 01:18:33;;;;;;;18.44;17.06;;;;;;;5.12;73.37;101208.16;457249;114;922179;-78
2022/02/11 01:19:57;;;;;;;18.11;16.61;;;;;;;5.12;73.37;101208.16;456771;114;922247;-80
2022/02/11 01:21:01;;;;;;;18.97;17.58;;;;;;;5.10;73.20;101215.56;455818;114;922592;-77
2022/02/11 01:22:11;;;;;;;19.69;18.26;;;;;;;5.10;73.18;101220.97;445442;118;922511;-78
2022/02/11 01:24:46;;;;;;;18.98;17.46;;;;;;;5.10;73.23;101212.87;423638;122;922402;-75
2022/02/11 01:27:17;;;;;;;19.18;17.63;;;;;;;5.10;73.17;101203.91;446939;117;922823;-73
2022/02/11 01:28:14;;;;;;;19.87;18.22;;;;;;;5.09;73.18;101208.47;456369;112;922856;-77
2022/02/11 01:35:33;;;;;;;19.73;18.09;;;;;;;5.13;73.05;101190.90;459943;114;922816;-78
2022/02/11 01:37:56;;;;;;;19.32;17.74;;;;;;;5.14;73.05;101187.19;459442;112;922594;-80
2022/02/11 01:40:58;;;;;;;20.34;18.53;;;;;;;5.15;72.98;101185.34;460450;112;922212;-77
2022/02/11 01:51:40;;;;;;;20.19;18.51;;;;;;;5.18;72.94;101183.17;461596;112;922058;-76
2022/02/11 01:54:05;;;;;;;20.04;18.50;;;;;;;5.23;72.82;101185.38;461716;114;922782;-79
2022/02/11 01:56:17;;;;;;;19.32;17.75;;;;;;;5.27;72.71;101189.42;458401;114;922795;-80
2022/02/11 01:58:54;;;;;;;20.94;19.26;;;;;;;5.31;72.62;101185.38;457783;113;921969;-76
2022/02/11 02:15:25;;;;;;;20.62;18.92;;;;;;;5.25;72.33;101186.03;458682;112;922682;-78
2022/02/11 02:25:03;;;;;;;20.90;19.02;;;;;;;5.36;72.13;101185.72;458151;113;922616;-79
2022/02/11 02:26:34;;;;;;;22.03;20.27;;;;;;;5.39;72.10;101185.41;458866;113;922890;-79
2022/02/11 02:27:40;;;;;;;21.84;20.15;;;;;;;5.40;72.05;101190.63;459088;112;922563;-80
2022/02/11 02:33:57;;;;;;;22.26;20.38;;;;;;;5.36;71.97;101181.16;460308;113;922604;-80
2022/02/11 02:50:47;;;;;;;22.82;20.97;;;;;;;5.40;71.78;101179.80;467850;111;923117;-76
2022/02/11 02:57:19;;;;;;;25.65;23.15;;;;;;;5.37;71.68;101187.41;450185;116;922822;-78
2022/02/11 02:58:24;;;;;;;23.49;21.49;;;;;;;5.33;71.67;101176.09;456368;114;922557;-78
2022/02/11 03:02:00;;;;;;;23.22;21.33;;;;;;;5.30;71.81;101175.56;468970;111;922519;-77
2022/02/11 03:15:39;;;;;;;24.39;21.93;;;;;;;5.38;71.66;101183.70;459525;113;922711;-77
2022/02/11 03:17:04;;;;;;;24.95;22.79;;;;;;;5.36;71.59;101175.75;454769;114;923226;-78
2022/02/11 03:34:58;;;;;;;23.65;21.72;;;;;;;5.33;71.61;101175.25;468839;111;922823;-77
2022/02/11 03:49:24;;;;;;;22.40;20.48;;;;;;;5.36;71.37;101172.20;468816;111;922592;-77
2022/02/11 04:55:47;;;;;;;19.31;17.56;;;;;;;4.97;72.68;101201.66;467739;111;922737;-77
2022/02/11 04:56:49;;;;;;;23.08;20.13;;;;;;;4.95;72.72;101204.55;468342;111;922527;-79
2022/02/11 05:00:39;;;;;;;21.48;19.58;;;;;;;4.95;72.82;101204.55;469160;111;923112;-82
2022/02/11 05:01:43;;;;;;;22.26;20.35;;;;;;;4.95;72.87;101203.70;468774;112;922560;-78
2022/02/11 05:02:47;;;;;;;21.32;19.55;;;;;;;4.95;72.84;101203.70;459577;114;922523;-77
2022/02/11 05:03:50;;;;;;;20.29;18.61;;;;;;;4.96;72.80;101208.10;469804;112;922661;-79
2022/02/11 05:04:53;;;;;;;21.12;19.23;;;;;;;4.97;72.74;101193.55;468528;111;930537;-78
2022/02/11 05:05:56;;;;;;;19.94;18.39;;;;;;;4.98;72.73;101208.77;452095;116;923195;-76
2022/02/11 05:07:00;;;;;;;20.23;18.51;;;;;;;4.99;72.86;101210.46;469941;112;922675;-80
2022/02/11 05:08:05;;;;;;;21.16;19.37;;;;;;;4.99;72.86;101210.46;469539;111;923107;-79
2022/02/11 05:09:09;;;;;;;20.19;18.63;;;;;;;4.98;72.71;101203.36;468568;111;922679;-80
2022/02/11 05:10:15;;;;;;;20.92;19.22;;;;;;;4.98;72.69;101209.61;469331;111;922563;-81
2022/02/11 05:11:18;;;;;;;19.89;18.27;;;;;;;4.99;72.71;101210.46;470331;112;930844;-80
2022/02/11 05:12:21;;;;;;;20.17;18.51;;;;;;;4.99;72.66;101208.61;468060;111;922523;-81
2022/02/11 05:13:25;;;;;;;20.09;18.32;;;;;;;4.98;72.67;101211.47;470204;111;922796;-77
2022/02/11 05:14:27;;;;;;;20.35;18.64;;;;;;;4.95;72.68;101215.36;469949;112;922472;-78
2022/02/11 05:15:31;;;;;;;20.97;19.11;;;;;;;4.96;72.70;101213.50;468319;112;922612;-78
2022/02/11 05:16:35;;;;;;;20.89;19.18;;;;;;;4.96;72.70;101213.50;468590;112;922519;-79
2022/02/11 05:17:43;;;;;;;21.61;19.87;;;;;;;4.96;72.75;101213.50;468167;111;922636;-80
2022/02/11 05:18:46;;;;;;;21.74;19.86;;;;;;;4.97;72.75;101215.17;467906;112;923125;-80
2022/02/11 05:19:49;;;;;;;21.08;19.42;;;;;;;4.96;72.70;101213.50;468663;112;922526;-78
2022/02/11 05:20:52;;;;;;;21.22;19.62;;;;;;;4.96;72.71;101213.50;468481;111;922644;-80
2022/02/11 05:21:55;;;;;;;20.97;19.16;;;;;;;4.96;72.71;101205.39;468692;111;922641;-79
2022/02/11 05:22:58;;;;;;;20.96;19.29;;;;;;;4.96;72.73;101208.91;468965;112;923173;-80
2022/02/11 05:24:02;;;;;;;21.23;19.48;;;;;;;4.97;72.80;101207.91;468487;111;922740;-78
2022/02/11 05:25:08;;;;;;;21.56;19.62;;;;;;;5.00;72.79;101209.45;468017;111;922611;-78
2022/02/11 05:26:11;;;;;;;21.73;19.71;;;;;;;5.01;72.69;101200.34;467820;111;922607;-78
2022/02/11 05:27:15;;;;;;;22.17;20.27;;;;;;;5.01;72.62;101208.45;468896;111;922676;-78
2022/02/11 05:28:18;;;;;;;21.68;19.93;;;;;;;4.99;72.64;101210.46;468942;112;922808;-79
2022/02/11 05:29:21;;;;;;;20.88;19.30;;;;;;;4.98;72.70;101201.50;468564;111;930536;-78
2022/02/11 05:30:26;;;;;;;21.01;19.31;;;;;;;4.97;72.68;101201.66;469106;111;922515;-79
2022/02/11 05:31:29;;;;;;;21.86;19.96;;;;;;;4.98;72.76;101197.95;469271;111;922524;-75
2022/02/11 05:32:32;;;;;;;21.67;19.94;;;;;;;4.98;72.87;101204.20;468954;112;930581;-77
2022/02/11 05:33:35;;;;;;;21.48;19.74;;;;;;;5.02;72.89;101194.75;469934;111;922615;-76
2022/02/11 05:34:38;;;;;;;22.76;20.68;;;;;;;5.07;72.88;101204.25;469132;111;922562;-77
2022/02/11 05:35:42;;;;;;;22.03;19.99;;;;;;;5.11;72.85;101198.34;470317;111;922998;-78
2022/02/11 05:36:46;;;;;;;22.22;20.20;;;;;;;5.15;72.80;101205.11;468305;112;922587;-80
2022/02/11 05:37:49;;;;;;;21.29;19.50;;;;;;;5.20;72.72;101204.61;469582;111;922582;-79
2022/02/11 05:38:54;;;;;;;20.43;18.65;;;;;;;5.23;72.64;101204.30;469791;112;922548;-79
2022/02/11 05:39:58;;;;;;;21.75;19.93;;;;;;;5.24;72.51;101198.70;468968;112;922532;-78
2022/02/11 05:41:03;;;;;;;20.96;19.09;;;;;;;5.27;72.47;101200.24;468677;112;922489;-80
2022/02/11 05:42:06;;;;;;;20.94;19.19;;;;;;;5.28;72.50;101197.38;467892;111;930615;-77
2022/02/11 05:43:10;;;;;;;21.88;20.09;;;;;;;5.31;72.34;101193.48;468846;111;922581;-78
2022/02/11 05:44:13;;;;;;;20.99;19.38;;;;;;;5.30;72.26;101189.93;469112;112;930886;-79
2022/02/11 05:45:16;;;;;;;19.53;18.03;;;;;;;5.31;72.22;101190.78;467908;111;922685;-80
2022/02/11 05:46:21;;;;;;;22.52;20.70;;;;;;;5.32;72.22;101196.03;452914;114;922613;-77
2022/02/11 05:47:24;;;;;;;22.58;20.86;;;;;;;5.32;72.15;101198.73;468820;112;922557;-78
2022/02/11 05:48:27;;;;;;;23.48;21.66;;;;;;;5.34;72.17;101201.28;465617;112;931076;-77
2022/02/11 05:49:30;;;;;;;23.30;21.33;;;;;;;5.35;72.11;101194.83;464942;111;923441;-79
2022/02/11 05:50:34;;;;;;;22.45;20.51;;;;;;;5.34;72.07;101199.42;464671;111;922689;-78
2022/02/11 05:51:39;;;;;;;23.14;21.22;;;;;;;5.34;72.01;101193.17;457697;114;922611;-77
2022/02/11 05:52:42;;;;;;;23.68;21.84;;;;;;;5.32;71.92;101196.03;458190;112;922591;-79
2022/02/11 05:53:45;;;;;;;23.24;21.21;;;;;;;5.28;71.87;101202.79;464868;112;922977;-78
2022/02/11 05:54:48;;;;;;;23.38;21.50;;;;;;;5.24;71.94;101196.00;465695;112;923067;-78
2022/02/11 05:55:52;;;;;;;24.35;22.25;;;;;;;5.24;72.08;101203.26;465294;111;922606;-79
2022/02/11 05:56:55;;;;;;;23.52;21.37;;;;;;;5.25;72.16;101199.55;465670;112;922606;-79
2022/02/11 05:58:00;;;;;;;23.50;21.59;;;;;;;5.25;72.22;101200.40;464763;112;922587;-78
2022/02/11 05:59:03;;;;;;;24.96;22.09;;;;;;;5.29;72.25;101204.45;465751;111;922616;-78
2022/02/11 06:00:07;;;;;;;20.35;18.85;;;;;;;5.32;72.21;101200.59;466722;112;923486;-79
2022/02/11 06:01:16;;;;;;;22.11;20.14;;;;;;;5.35;72.12;101202.95;466095;111;922500;-76
2022/02/11 06:02:19;;;;;;;23.31;21.20;;;;;;;5.35;72.01;101205.65;465453;111;922468;-79
2022/02/11 06:03:24;;;;;;;23.75;21.63;;;;;;;5.35;71.97;101211.91;464986;112;922532;-80
2022/02/11 06:04:27;;;;;;;24.24;22.23;;;;;;;5.35;71.98;101206.50;465600;112;923121;-81
2022/02/11 06:05:30;;;;;;;22.74;20.89;;;;;;;5.35;71.90;101213.77;465090;112;922746;-79
2022/02/11 06:06:33;;;;;;;23.19;21.14;;;;;;;5.34;71.84;101203.98;464866;111;923126;-79
2022/02/11 06:07:36;;;;;;;23.69;21.67;;;;;;;5.34;71.88;101212.95;464337;112;923042;-79
2022/02/11 06:08:40;;;;;;;22.82;20.91;;;;;;;5.34;71.84;101207.54;464708;112;922638;-81
2022/02/11 06:09:43;;;;;;;21.52;19.84;;;;;;;5.33;71.79;101205.84;464273;111;922546;-79
2022/02/11 06:10:48;;;;;;;21.61;19.95;;;;;;;5.33;71.81;101210.40;465785;111;922953;-75
2022/02/11 06:11:51;;;;;;;20.58;19.02;;;;;;;5.33;71.87;101213.95;464937;112;922733;-76
2022/02/11 06:12:54;;;;;;;21.36;19.57;;;;;;;5.34;71.84;101212.09;464174;111;922377;-77
2022/02/11 06:13:57;;;;;;;20.46;18.70;;;;;;;5.35;71.88;101211.91;464167;112;922624;-82
2022/02/11 06:15:03;;;;;;;19.89;18.36;;;;;;;5.36;71.88;101213.61;463552;112;930542;-78
2022/02/11 06:16:08;;;;;;;20.48;18.89;;;;;;;5.39;71.88;101215.15;464609;112;922629;-76
2022/02/11 06:17:11;;;;;;;20.82;19.12;;;;;;;5.40;71.86;101204.14;465494;111;922496;-75
2022/02/11 06:18:14;;;;;;;20.81;19.09;;;;;;;5.43;71.88;101201.12;465179;111;922658;-76
2022/02/11 06:19:17;;;;;;;22.10;20.32;;;;;;;5.46;71.86;101203.48;465211;111;922603;-77
2022/02/11 06:20:27;;;;;;;20.66;18.92;;;;;;;5.50;71.86;101206.72;465135;112;922649;-76
2022/02/11 06:21:26;;;;;;;22.44;20.69;;;;;;;5.54;71.85;101207.22;463804;111;922596;-80
2022/02/11 06:22:31;;;;;;;22.79;20.83;;;;;;;5.58;71.72;101203.16;465686;111;922912;-77
2022/02/11 06:23:34;;;;;;;23.01;20.89;;;;;;;5.61;71.71;101205.55;465698;112;923669;-77
2022/02/11 06:24:37;;;;;;;23.16;20.99;;;;;;;5.64;71.65;101208.75;466769;112;926545;-76
2022/02/11 06:25:40;;;;;;;22.36;20.41;;;;;;;5.68;71.59;101198.46;466254;111;922550;-76
2022/02/11 06:26:44;;;;;;;23.61;21.42;;;;;;;5.70;71.51;101205.38;466369;111;923231;-79
2022/02/11 06:27:47;;;;;;;23.46;21.56;;;;;;;5.72;71.45;101197.95;466474;111;922616;-79
2022/02/11 06:28:52;;;;;;;23.31;21.36;;;;;;;5.76;71.45;101202.00;465683;112;922699;-82
2022/02/11 06:29:55;;;;;;;24.83;22.46;;;;;;;5.79;71.36;101200.80;466075;111;922691;-75
2022/02/11 06:30:58;;;;;;;25.66;23.26;;;;;;;5.82;71.27;101198.63;463500;112;923399;-79
2022/02/11 06:32:04;;;;;;;25.18;22.78;;;;;;;5.85;71.25;101192.02;464865;112;922648;-80
2022/02/11 06:33:14;;;;;;;23.01;21.19;;;;;;;6.00;71.18;101190.38;472452;110;947689;-79
2022/02/11 06:34:17;;;;;;;23.56;21.71;;;;;;;5.93;71.16;101192.05;461282;113;922661;-76
2022/02/11 06:35:20;;;;;;;22.56;20.54;;;;;;;5.97;71.10;101190.69;461565;113;922571;-77
2022/02/11 06:36:24;;;;;;;21.27;19.61;;;;;;;6.00;71.01;101195.78;462569;113;922758;-78
2022/02/11 06:37:27;;;;;;;22.71;20.68;;;;;;;6.04;70.88;101190.86;462435;113;930529;-80
2022/02/11 06:38:30;;;;;;;22.46;20.21;;;;;;;6.06;70.78;101192.40;461554;113;922641;-81
2022/02/11 06:39:33;;;;;;;20.94;19.32;;;;;;;6.09;70.77;101189.33;463364;113;922751;-79
2022/02/11 06:40:37;;;;;;;21.03;19.26;;;;;;;6.12;70.74;101191.69;462731;114;922431;-79
2022/02/11 06:41:40;;;;;;;22.86;20.85;;;;;;;6.16;70.70;101190.35;462418;113;922611;-80
2022/02/11 06:42:44;;;;;;;20.68;19.08;;;;;;;6.20;70.56;101190.84;462782;113;923148;-78
2022/02/11 06:43:47;;;;;;;21.31;19.52;;;;;;;6.23;70.52;101185.07;462186;113;922408;-75
2022/02/11 06:44:51;;;;;;;21.99;20.17;;;;;;;6.26;70.42;101191.01;463368;113;923436;-76
2022/02/11 06:45:54;;;;;;;21.31;19.62;;;;;;;6.27;70.37;101187.28;462462;113;922564;-78
2022/02/11 06:46:57;;;;;;;22.62;20.42;;;;;;;6.31;70.31;101190.48;462304;112;922492;-79
2022/02/11 06:48:01;;;;;;;21.92;20.15;;;;;;;6.33;70.22;101191.17;462927;113;922688;-79
2022/02/11 06:49:04;;;;;;;21.45;19.85;;;;;;;6.36;70.17;101185.39;463039;113;922780;-81
2022/02/11 06:50:09;;;;;;;21.62;19.80;;;;;;;6.39;70.15;101185.06;463513;113;922446;-82
2022/02/11 06:51:12;;;;;;;22.35;20.59;;;;;;;6.43;70.11;101186.41;462057;113;930540;-80
2022/02/11 06:52:16;;;;;;;23.20;21.27;;;;;;;6.44;70.02;101184.54;463824;113;922535;-79
2022/02/11 06:53:20;;;;;;;21.93;20.14;;;;;;;6.47;69.96;101186.89;462976;113;930453;-82
2022/02/11 06:54:23;;;;;;;22.18;20.23;;;;;;;6.49;69.89;101184.86;462940;113;930628;-80
2022/02/11 06:55:26;;;;;;;21.87;20.03;;;;;;;6.51;69.92;101191.78;461924;113;922562;-80
2022/02/11 06:56:31;;;;;;;25.66;23.35;;;;;;;6.53;69.85;101187.05;461264;113;930544;-79
2022/02/11 06:57:35;;;;;;;26.87;24.36;;;;;;;6.55;69.79;101187.73;461468;113;922525;-78
2022/02/11 06:58:38;;;;;;;28.77;25.76;;;;;;;6.57;69.68;101187.53;462004;112;922726;-80
2022/02/11 06:59:41;;;;;;;28.35;25.43;;;;;;;6.58;69.67;101183.81;461218;112;922910;-77
2022/02/11 07:00:46;;;;;;;24.11;21.89;;;;;;;6.59;69.62;101182.80;461548;111;923014;-78
2022/02/11 07:01:49;;;;;;;25.09;23.01;;;;;;;6.60;69.53;101188.05;462534;113;923583;-78
2022/02/11 07:02:53;;;;;;;22.17;20.57;;;;;;;6.60;69.58;101179.08;462904;113;923994;-79
2022/02/11 07:03:56;;;;;;;21.40;19.66;;;;;;;6.60;69.51;101182.63;461898;113;922446;-83
2022/02/11 07:04:59;;;;;;;21.86;19.95;;;;;;;6.62;69.47;101180.57;462394;113;922384;-79
2022/02/11 07:06:03;;;;;;;21.38;19.69;;;;;;;6.65;69.41;101182.95;462596;112;922538;-76
2022/02/11 07:07:06;;;;;;;23.39;21.21;;;;;;;6.68;69.34;101187.16;462537;114;922929;-78
2022/02/11 07:08:09;;;;;;;21.61;19.94;;;;;;;6.69;69.26;101176.16;462417;113;922718;-78
2022/02/11 07:09:13;;;;;;;20.79;19.19;;;;;;;6.72;69.17;101177.68;463584;113;922663;-78
2022/02/11 07:10:17;;;;;;;20.24;18.63;;;;;;;6.73;69.09;101176.63;462887;113;930549;-76
2022/02/11 07:11:20;;;;;;;20.94;19.29;;;;;;;6.75;69.03;101177.31;462650;113;930576;-76
2022/02/11 07:12:23;;;;;;;21.06;18.98;;;;;;;6.76;68.99;101176.30;463312;113;922754;-75
2022/02/11 07:13:27;;;;;;;21.92;20.04;;;;;;;6.79;68.86;101172.37;463144;112;922625;-78
2022/02/11 07:14:30;;;;;;;21.50;19.71;;;;;;;6.80;68.80;101174.07;464041;114;922505;-80
2022/02/11 07:15:37;;;;;;;21.97;20.01;;;;;;;6.81;68.66;101182.03;463355;113;922727;-80
2022/02/11 07:16:38;;;;;;;20.99;19.33;;;;;;;6.83;68.62;101171.03;462776;114;922724;-77
2022/02/11 07:17:41;;;;;;;22.73;20.82;;;;;;;6.84;68.60;101176.25;463436;112;922631;-75
2022/02/11 07:18:44;;;;;;;23.19;21.06;;;;;;;6.86;68.51;101168.80;463391;113;930484;-76
2022/02/11 07:19:47;;;;;;;22.94;20.91;;;;;;;6.89;68.47;101178.45;461168;113;922717;-80
2022/02/11 07:20:51;;;;;;;23.16;21.09;;;;;;;6.89;68.34;101165.72;460941;113;922543;-80
2022/02/11 07:21:54;;;;;;;22.87;20.58;;;;;;;6.91;68.35;101170.97;460772;113;922865;-78
2022/02/11 07:22:58;;;;;;;22.87;20.90;;;;;;;6.91;68.23;101168.27;460700;114;922465;-80
2022/02/11 07:24:01;;;;;;;21.20;19.49;;;;;;;6.90;68.18;101161.99;461612;113;922733;-78
2022/02/11 07:25:06;;;;;;;23.35;21.09;;;;;;;6.91;68.18;101165.55;463167;113;923189;-77
2022/02/11 07:26:09;;;;;;;21.58;19.92;;;;;;;6.91;68.12;101160.98;461217;113;922790;-76
2022/02/11 07:27:13;;;;;;;22.46;20.47;;;;;;;6.91;68.10;101163.69;462119;113;922517;-77
2022/02/11 07:28:18;;;;;;;20.95;19.24;;;;;;;6.92;68.07;101159.97;458443;113;922657;-83
2022/02/11 07:29:21;;;;;;;20.95;19.26;;;;;;;6.92;68.07;101159.97;459004;113;930537;-79
2022/02/11 07:30:26;;;;;;;23.04;20.94;;;;;;;6.94;68.15;101168.77;461944;114;922614;-79
2022/02/11 07:31:29;;;;;;;22.64;20.84;;;;;;;6.96;68.10;101160.44;462053;113;930716;-79
2022/02/11 07:32:32;;;;;;;23.61;21.50;;;;;;;6.97;68.08;101156.72;463110;114;922967;-79
2022/02/11 07:33:36;;;;;;;23.52;21.45;;;;;;;6.97;68.06;101156.72;462916;113;922737;-79
2022/02/11 07:34:39;;;;;;;24.41;22.24;;;;;;;6.96;68.09;101158.58;462294;113;922626;-81
2022/02/11 07:35:42;;;;;;;24.27;21.86;;;;;;;6.98;68.03;101156.55;462889;111;922601;-81
2022/02/11 07:36:45;;;;;;;22.78;20.96;;;;;;;6.98;68.04;101159.26;462843;114;922880;-79
2022/02/11 07:37:49;;;;;;;24.79;22.38;;;;;;;6.98;68.00;101152.98;463598;113;923321;-76
2022/02/11 07:38:52;;;;;;;22.81;21.06;;;;;;;7.00;67.94;101153.67;461398;113;922562;-77
2022/02/11 07:39:56;;;;;;;24.18;22.03;;;;;;;7.00;67.90;101153.67;462841;112;922518;-80
2022/02/11 07:40:59;;;;;;;22.61;20.66;;;;;;;7.00;67.85;101157.19;463148;113;922681;-78
2022/02/11 07:42:02;;;;;;;23.67;21.77;;;;;;;7.00;67.83;101153.67;463344;113;922573;-79
2022/02/11 07:43:06;;;;;;;26.45;23.86;;;;;;;7.01;67.80;101148.05;462738;113;922331;-81
2022/02/11 07:44:11;;;;;;;25.69;23.28;;;;;;;7.01;67.75;101153.47;459076;114;930225;-77
2022/02/11 07:45:16;;;;;;;24.49;22.52;;;;;;;7.01;67.67;101153.47;462158;114;922841;-78
2022/02/11 07:46:19;;;;;;;23.39;21.12;;;;;;;7.01;67.62;101148.05;461208;113;922489;-78
2022/02/11 07:47:22;;;;;;;23.31;21.46;;;;;;;7.01;67.59;101149.91;461384;114;922961;-78
2022/02/11 07:48:25;;;;;;;24.09;22.12;;;;;;;7.00;67.63;101151.77;461703;114;922585;-78
2022/02/11 07:49:28;;;;;;;24.07;21.98;;;;;;;6.99;67.59;101155.53;461635;114;922656;-77
2022/02/11 07:50:32;;;;;;;23.92;21.95;;;;;;;6.99;67.58;101146.55;462697;114;923039;-79
2022/02/11 07:51:35;;;;;;;24.17;22.08;;;;;;;6.99;67.58;101146.55;461179;113;922886;-77
2022/02/11 07:52:38;;;;;;;24.02;21.87;;;;;;;6.98;67.66;101145.70;461668;113;922905;-78
2022/02/11 07:53:45;;;;;;;27.93;25.19;;;;;;;6.98;67.65;101142.99;461631;113;922825;-79
2022/02/11 07:54:48;;;;;;;25.32;23.02;;;;;;;7.00;67.66;101148.25;462305;114;922625;-82
2022/02/11 07:55:52;;;;;;;26.81;24.34;;;;;;;7.00;67.65;101140.11;461901;113;922925;-79
2022/02/11 07:56:55;;;;;;;28.55;25.80;;;;;;;6.99;67.68;101143.84;462146;113;930292;-80
2022/02/11 07:57:58;;;;;;;26.56;23.99;;;;;;;7.00;67.71;101140.92;461412;113;930514;-80
2022/02/11 07:59:02;;;;;;;28.02;24.87;;;;;;;7.00;67.71;101138.22;462088;114;922569;-82
2022/02/11 08:00:06;;;;;;;27.76;25.11;;;;;;;7.01;67.76;101137.20;461370;113;930862;-79
2022/02/11 08:01:19;;;;;;;27.43;24.87;;;;;;;7.05;67.75;101148.55;462570;113;922525;-79
2022/02/11 08:02:21;;;;;;;29.38;26.36;;;;;;;7.07;67.78;101143.77;462141;113;924787;-75
2022/02/11 08:03:24;;;;;;;30.02;26.85;;;;;;;7.08;67.74;101137.34;462068;113;922573;-81
2022/02/11 08:04:28;;;;;;;29.73;26.79;;;;;;;7.10;67.74;101147.00;463589;113;922826;-79
2022/02/11 08:05:31;;;;;;;29.84;26.14;;;;;;;7.12;67.71;101139.50;462544;113;922604;-77
2022/02/11 08:06:34;;;;;;;30.36;27.27;;;;;;;7.13;67.69;101141.20;462335;113;922872;-75
2022/02/11 08:07:37;;;;;;;30.21;26.26;;;;;;;7.15;67.69;101140.19;462961;114;922442;-79
2022/02/11 08:08:41;;;;;;;25.34;23.11;;;;;;;7.16;67.72;101144.59;462447;113;922403;-81
2022/02/11 08:09:45;;;;;;;25.78;23.32;;;;;;;7.17;67.66;101146.28;463227;113;923023;-79
2022/02/11 08:10:49;;;;;;;27.23;24.59;;;;;;;7.16;67.65;101134.59;462561;113;922575;-80
2022/02/11 08:11:53;;;;;;;26.87;24.27;;;;;;;7.15;67.66;101138.32;460911;113;930560;-80
2022/02/11 08:12:57;;;;;;;27.27;24.51;;;;;;;7.15;67.68;101138.32;454037;116;923128;-75
2022/02/11 08:14:02;;;;;;;26.93;24.34;;;;;;;7.14;67.69;101131.20;454425;114;922764;-81
2022/02/11 08:15:09;;;;;;;26.87;24.38;;;;;;;7.13;67.73;101133.06;461429;114;922755;-83
2022/02/11 08:16:14;;;;;;;26.99;24.29;;;;;;;7.14;67.81;101136.62;462087;114;922863;-79
2022/02/11 08:17:18;;;;;;;26.95;24.55;;;;;;;7.14;67.76;101131.20;462563;114;922431;-79
2022/02/11 08:18:24;;;;;;;29.21;26.08;;;;;;;7.16;67.82;101136.45;440710;118;923260;-84
2022/02/11 08:19:29;;;;;;;26.57;24.22;;;;;;;7.17;67.86;101135.44;442557;114;923101;-77
2022/02/11 08:20:34;;;;;;;26.84;24.18;;;;;;;7.17;67.85;101132.72;462083;113;922612;-79
2022/02/11 08:21:37;;;;;;;24.81;22.50;;;;;;;7.18;67.91;101131.67;462327;114;930223;-76
2022/02/11 08:22:40;;;;;;;25.77;23.42;;;;;;;7.20;67.92;101132.35;463343;113;930267;-80
2022/02/11 08:23:44;;;;;;;27.84;25.15;;;;;;;7.22;68.01;101127.60;462009;113;922614;-77
2022/02/11 08:24:48;;;;;;;29.48;26.65;;;;;;;7.22;67.99;101125.73;462539;113;922537;-79
2022/02/11 08:25:51;;;;;;;30.62;27.41;;;;;;;7.25;68.01;101114.52;462520;113;930469;-76
2022/02/11 08:26:55;;;;;;;25.17;22.61;;;;;;;7.27;68.02;101120.62;461930;113;922711;-79
2022/02/11 08:27:58;;;;;;;25.61;23.23;;;;;;;7.28;68.01;101121.43;461991;113;922495;-77
2022/02/11 08:29:04;;;;;;;22.96;21.02;;;;;;;7.30;68.00;101116.69;461058;113;922596;-78
2022/02/11 08:30:10;;;;;;;26.07;23.69;;;;;;;7.32;68.00;101120.07;462826;113;922740;-79
2022/02/11 08:31:13;;;;;;;25.74;23.16;;;;;;;7.33;67.99;101108.20;462442;114;922524;-78
2022/02/11 08:32:19;;;;;;;25.82;22.74;;;;;;;7.36;68.00;101124.10;463176;113;923609;-80